sensor_id;sensor_type;location;lat;lon;timestamp;pressure;altitude;pressure_sealevel;temperature;humidity
45525;BME280;31437;58.350;13.828;2023-02-19T00:04:03;99781.53;;;-2.20;100.00
45525;BME280;31437;58.350;13.828;2023-02-19T00:06:30;99769.50;;;-2.20;100.00
45525;BME280;31437;58.350;13.828;2023-02-19T00:08:56;99772.13;;;-2.24;100.00
45525;BME280;31437;58.350;13.828;2023-02-19T00:11:22;99762.75;;;-2.29;100.00
45525;BME280;31437;58.350;13.828;2023-02-19T00:13:49;99775.59;;;-2.33;100.00
45525;BME280;31437;58.350;13.828;2023-02-19T00:16:16;99765.34;;;-2.33;100.00
45525;BME280;31437;58.350;13.828;2023-02-19T00:18:41;99760.19;;;-2.32;100.00
45525;BME280;31437;58.350;13.828;2023-02-19T00:21:07;99759.34;;;-2.32;100.00
45525;BME280;31437;58.350;13.828;2023-02-19T00:23:32;99753.34;;;-2.31;100.00
45525;BME280;31437;58.350;13.828;2023-02-19T00:26:02;99750.78;;;-2.34;100.00
45525;BME280;31437;58.350;13.828;2023-02-19T00:28:27;99740.50;;;-2.31;100.00
45525;BME280;31437;58.350;13.828;2023-02-19T00:30:53;99721.66;;;-2.32;100.00
45525;BME280;31437;58.350;13.828;2023-02-19T00:33:18;99724.25;;;-2.35;100.00
45525;BME280;31437;58.350;13.828;2023-02-19T00:35:43;99722.53;;;-2.36;100.00
45525;BME280;31437;58.350;13.828;2023-02-19T00:38:09;99714.84;;;-2.37;100.00
45525;BME280;31437;58.350;13.828;2023-02-19T00:40:34;99712.28;;;-2.39;100.00
45525;BME280;31437;58.350;13.828;2023-02-19T00:42:59;99710.63;;;-2.43;100.00
45525;BME280;31437;58.350;13.828;2023-02-19T00:45:24;99724.34;;;-2.44;100.00
45525;BME280;31437;58.350;13.828;2023-02-19T00:47:50;99732.03;;;-2.41;100.00
45525;BME280;31437;58.350;13.828;2023-02-19T00:50:15;99731.16;;;-2.41;100.00
45525;BME280;31437;58.350;13.828;2023-02-19T00:52:40;99729.44;;;-2.42;100.00
45525;BME280;31437;58.350;13.828;2023-02-19T00:55:06;99725.19;;;-2.43;100.00
45525;BME280;31437;58.350;13.828;2023-02-19T00:57:31;99711.53;;;-2.47;100.00
45525;BME280;31437;58.350;13.828;2023-02-19T00:59:56;99720.06;;;-2.43;100.00
45525;BME280;31437;58.350;13.828;2023-02-19T01:02:22;99709.78;;;-2.43;100.00
45525;BME280;31437;58.350;13.828;2023-02-19T01:04:47;99708.97;;;-2.47;100.00
45525;BME280;31437;58.350;13.828;2023-02-19T01:07:12;99702.94;;;-2.46;100.00
45525;BME280;31437;58.350;13.828;2023-02-19T01:09:37;99702.06;;;-2.45;100.00
45525;BME280;31437;58.350;13.828;2023-02-19T01:12:04;99703.78;;;-2.45;100.00
45525;BME280;31437;58.350;13.828;2023-02-19T01:14:29;99699.56;;;-2.49;100.00
45525;BME280;31437;58.350;13.828;2023-02-19T01:16:54;99697.84;;;-2.49;100.00
45525;BME280;31437;58.350;13.828;2023-02-19T01:19:20;99693.59;;;-2.55;100.00
45525;BME280;31437;58.350;13.828;2023-02-19T01:21:45;99685.91;;;-2.55;100.00
45525;BME280;31437;58.350;13.828;2023-02-19T01:24:10;99679.06;;;-2.57;100.00
45525;BME280;31437;58.350;13.828;2023-02-19T01:26:36;99687.63;;;-2.60;100.00
45525;BME280;31437;58.350;13.828;2023-02-19T01:29:01;99689.41;;;-2.66;100.00
45525;BME280;31437;58.350;13.828;2023-02-19T01:31:27;99697.97;;;-2.66;100.00
45525;BME280;31437;58.350;13.828;2023-02-19T01:33:54;99713.41;;;-2.69;100.00
45525;BME280;31437;58.350;13.828;2023-02-19T01:36:20;99721.97;;;-2.70;100.00
45525;BME280;31437;58.350;13.828;2023-02-19T01:38:46;99752.84;;;-2.76;100.00
45525;BME280;31437;58.350;13.828;2023-02-19T01:41:17;99770.81;;;-2.81;100.00
45525;BME280;31437;58.350;13.828;2023-02-19T01:46:19;99786.22;;;-2.78;100.00
45525;BME280;31437;58.350;13.828;2023-02-19T01:48:45;99784.50;;;-2.77;100.00
45525;BME280;31437;58.350;13.828;2023-02-19T01:51:14;99789.69;;;-2.82;100.00
45525;BME280;31437;58.350;13.828;2023-02-19T01:53:42;99789.69;;;-2.85;100.00
45525;BME280;31437;58.350;13.828;2023-02-19T01:56:09;99785.41;;;-2.86;100.00
45525;BME280;31437;58.350;13.828;2023-02-19T01:58:36;99785.44;;;-2.87;100.00
45525;BME280;31437;58.350;13.828;2023-02-19T02:01:03;99788.00;;;-2.87;100.00
45525;BME280;31437;58.350;13.828;2023-02-19T02:03:30;99792.28;;;-2.88;100.00
45525;BME280;31437;58.350;13.828;2023-02-19T02:06:19;99791.41;;;-2.87;100.00
45525;BME280;31437;58.350;13.828;2023-02-19T02:08:41;99783.72;;;-2.90;100.00
45525;BME280;31437;58.350;13.828;2023-02-19T02:11:25;99791.41;;;-2.91;100.00
45525;BME280;31437;58.350;13.828;2023-02-19T02:13:50;99801.72;;;-2.94;100.00
45525;BME280;31437;58.350;13.828;2023-02-19T02:16:34;99811.13;;;-2.93;100.00
45525;BME280;31437;58.350;13.828;2023-02-19T02:32:07;99927.50;;;-3.04;100.00
45525;BME280;31437;58.350;13.828;2023-02-19T02:34:44;99940.34;;;-3.04;100.00
45525;BME280;31437;58.350;13.828;2023-02-19T02:37:12;99959.19;;;-3.05;100.00
45525;BME280;31437;58.350;13.828;2023-02-19T02:39:38;99983.16;;;-3.10;100.00
45525;BME280;31437;58.350;13.828;2023-02-19T02:42:05;100030.22;;;-3.14;100.00
45525;BME280;31437;58.350;13.828;2023-02-19T02:44:49;100061.00;;;-3.17;100.00
45525;BME280;31437;58.350;13.828;2023-02-19T02:47:34;100079.81;;;-3.23;100.00
45525;BME280;31437;58.350;13.828;2023-02-19T02:50:17;100102.91;;;-3.28;100.00
45525;BME280;31437;58.350;13.828;2023-02-19T02:52:44;100102.03;;;-3.30;100.00
45525;BME280;31437;58.350;13.828;2023-02-19T02:55:29;100125.13;;;-3.33;100.00
45525;BME280;31437;58.350;13.828;2023-02-19T02:57:55;100141.38;;;-3.34;100.00
45525;BME280;31437;58.350;13.828;2023-02-19T03:00:21;100153.34;;;-3.34;100.00
45525;BME280;31437;58.350;13.828;2023-02-19T03:02:48;100165.31;;;-3.36;100.00
45525;BME280;31437;58.350;13.828;2023-02-19T03:08:08;100178.97;;;-3.50;100.00
45525;BME280;31437;58.350;13.828;2023-02-19T03:10:47;100178.97;;;-3.53;100.00
45525;BME280;31437;58.350;13.828;2023-02-19T03:13:17;100201.16;;;-3.53;100.00
45525;BME280;31437;58.350;13.828;2023-02-19T03:16:05;100216.56;;;-3.52;100.00
45525;BME280;31437;58.350;13.828;2023-02-19T03:18:52;100229.41;;;-3.47;100.00
45525;BME280;31437;58.350;13.828;2023-02-19T03:21:37;100214.03;;;-3.49;100.00
45525;BME280;31437;58.350;13.828;2023-02-19T03:24:03;100233.66;;;-3.51;100.00
45525;BME280;31437;58.350;13.828;2023-02-19T03:26:48;100235.38;;;-3.54;100.00
45525;BME280;31437;58.350;13.828;2023-02-19T03:29:19;100237.09;;;-3.55;100.00
45525;BME280;31437;58.350;13.828;2023-02-19T03:31:54;100237.91;;;-3.57;100.00
45525;BME280;31437;58.350;13.828;2023-02-19T03:34:21;100241.34;;;-3.55;100.00
45525;BME280;31437;58.350;13.828;2023-02-19T03:36:55;100243.06;;;-3.56;100.00
45525;BME280;31437;58.350;13.828;2023-02-19T03:39:22;100254.16;;;-3.57;100.00
45525;BME280;31437;58.350;13.828;2023-02-19T03:46:46;100255.00;;;-3.59;100.00
45525;BME280;31437;58.350;13.828;2023-02-19T03:49:27;100247.34;;;-3.55;100.00
45525;BME280;31437;58.350;13.828;2023-02-19T03:52:17;100240.50;;;-3.54;100.00
45525;BME280;31437;58.350;13.828;2023-02-19T03:57:22;100224.25;;;-3.55;100.00
45525;BME280;31437;58.350;13.828;2023-02-19T03:59:56;100223.41;;;-3.58;100.00
45525;BME280;31437;58.350;13.828;2023-02-19T04:02:26;100224.19;;;-3.66;100.00
45525;BME280;31437;58.350;13.828;2023-02-19T04:05:12;100231.03;;;-3.69;100.00
45525;BME280;31437;58.350;13.828;2023-02-19T04:07:41;100233.59;;;-3.72;100.00
45525;BME280;31437;58.350;13.828;2023-02-19T04:10:08;100240.38;;;-3.77;100.00
45525;BME280;31437;58.350;13.828;2023-02-19T04:12:35;100243.81;;;-3.78;100.00
45525;BME280;31437;58.350;13.828;2023-02-19T04:15:06;100240.38;;;-3.80;100.00
45525;BME280;31437;58.350;13.828;2023-02-19T04:17:41;100246.38;;;-3.81;100.00
45525;BME280;31437;58.350;13.828;2023-02-19T04:20:08;100254.06;;;-3.78;100.00
45525;BME280;31437;58.350;13.828;2023-02-19T04:22:35;100252.38;;;-3.79;100.00
45525;BME280;31437;58.350;13.828;2023-02-19T04:25:01;100260.91;;;-3.82;100.00
45525;BME280;31437;58.350;13.828;2023-02-19T04:27:26;100254.06;;;-3.78;100.00
45525;BME280;31437;58.350;13.828;2023-02-19T04:29:52;100250.66;;;-3.76;100.00
45525;BME280;31437;58.350;13.828;2023-02-19T04:32:17;100255.78;;;-3.71;100.00
45525;BME280;31437;58.350;13.828;2023-02-19T04:34:42;100257.53;;;-3.70;100.00
45525;BME280;31437;58.350;13.828;2023-02-19T04:37:07;100251.53;;;-3.72;100.00
45525;BME280;31437;58.350;13.828;2023-02-19T04:39:33;100237.84;;;-3.76;100.00
45525;BME280;31437;58.350;13.828;2023-02-19T04:41:58;100237.84;;;-3.74;100.00
45525;BME280;31437;58.350;13.828;2023-02-19T04:44:23;100234.41;;;-3.75;100.00
45525;BME280;31437;58.350;13.828;2023-02-19T04:46:49;100244.69;;;-3.73;100.00
45525;BME280;31437;58.350;13.828;2023-02-19T04:49:14;100240.38;;;-3.77;100.00
45525;BME280;31437;58.350;13.828;2023-02-19T04:51:39;100239.56;;;-3.76;100.00
45525;BME280;31437;58.350;13.828;2023-02-19T04:54:05;100232.69;;;-3.77;100.00
45525;BME280;31437;58.350;13.828;2023-02-19T04:56:30;100238.66;;;-3.81;100.00
45525;BME280;31437;58.350;13.828;2023-02-19T04:58:56;100233.53;;;-3.84;100.00
45525;BME280;31437;58.350;13.828;2023-02-19T05:01:21;100240.34;;;-3.90;100.00
45525;BME280;31437;58.350;13.828;2023-02-19T05:03:46;100251.41;;;-3.97;100.00
45525;BME280;31437;58.350;13.828;2023-02-19T05:06:12;100253.06;;;-4.02;100.00
45525;BME280;31437;58.350;13.828;2023-02-19T05:08:38;100253.88;;;-4.06;100.00
45525;BME280;31437;58.350;13.828;2023-02-19T05:11:05;100259.00;;;-4.06;100.00
45525;BME280;31437;58.350;13.828;2023-02-19T05:13:30;100268.47;;;-4.02;100.00
45525;BME280;31437;58.350;13.828;2023-02-19T05:15:56;100273.56;;;-4.00;100.00
45525;BME280;31437;58.350;13.828;2023-02-19T05:18:22;100271.91;;;-3.97;100.00
45525;BME280;31437;58.350;13.828;2023-02-19T05:20:48;100275.31;;;-3.99;100.00
45525;BME280;31437;58.350;13.828;2023-02-19T05:23:13;100277.00;;;-4.03;100.00
45525;BME280;31437;58.350;13.828;2023-02-19T05:25:38;100262.47;;;-4.05;100.00
45525;BME280;31437;58.350;13.828;2023-02-19T05:28:04;100273.53;;;-4.06;100.00
45525;BME280;31437;58.350;13.828;2023-02-19T05:30:42;100277.78;;;-4.12;100.00
45525;BME280;31437;58.350;13.828;2023-02-19T05:33:07;100279.47;;;-4.14;100.00
45525;BME280;31437;58.350;13.828;2023-02-19T05:35:32;100286.31;;;-4.14;100.00
45525;BME280;31437;58.350;13.828;2023-02-19T05:37:57;100295.72;;;-4.15;100.00
45525;BME280;31437;58.350;13.828;2023-02-19T05:40:23;100292.25;;;-4.15;100.00
45525;BME280;31437;58.350;13.828;2023-02-19T05:42:48;100294.81;;;-4.15;100.00
45525;BME280;31437;58.350;13.828;2023-02-19T05:45:13;100299.09;;;-4.16;100.00
45525;BME280;31437;58.350;13.828;2023-02-19T05:47:38;100299.97;;;-4.12;100.00
45525;BME280;31437;58.350;13.828;2023-02-19T05:50:04;100296.56;;;-4.13;100.00
45525;BME280;31437;58.350;13.828;2023-02-19T05:52:29;100305.16;;;-4.07;100.00
45525;BME280;31437;58.350;13.828;2023-02-19T05:54:55;100307.72;;;-4.07;100.00
45525;BME280;31437;58.350;13.828;2023-02-19T05:57:20;100313.66;;;-4.10;100.00
45525;BME280;31437;58.350;13.828;2023-02-19T05:59:45;100318.72;;;-4.18;100.00
45525;BME280;31437;58.350;13.828;2023-02-19T06:02:10;100319.56;;;-4.19;100.00
45525;BME280;31437;58.350;13.828;2023-02-19T06:04:36;100325.53;;;-4.21;100.00
45525;BME280;31437;58.350;13.828;2023-02-19T06:07:01;100322.09;;;-4.25;100.00
45525;BME280;31437;58.350;13.828;2023-02-19T06:09:26;100330.63;;;-4.26;100.00
45525;BME280;31437;58.350;13.828;2023-02-19T06:11:52;100328.03;;;-4.30;100.00
45525;BME280;31437;58.350;13.828;2023-02-19T06:14:17;100330.59;;;-4.32;100.00
45525;BME280;31437;58.350;13.828;2023-02-19T06:16:42;100333.97;;;-4.33;100.00
45525;BME280;31437;58.350;13.828;2023-02-19T06:19:08;100340.78;;;-4.37;100.00
45525;BME280;31437;58.350;13.828;2023-02-19T06:21:33;100337.34;;;-4.36;100.00
45525;BME280;31437;58.350;13.828;2023-02-19T06:24:02;100339.09;;;-4.33;100.00
45525;BME280;31437;58.350;13.828;2023-02-19T06:26:27;100340.81;;;-4.30;100.00
45525;BME280;31437;58.350;13.828;2023-02-19T06:28:53;100351.06;;;-4.32;100.00
45525;BME280;31437;58.350;13.828;2023-02-19T06:31:19;100348.50;;;-4.35;100.00
45525;BME280;31437;58.350;13.828;2023-02-19T06:33:45;100351.06;;;-4.30;100.00
45525;BME280;31437;58.350;13.828;2023-02-19T06:36:14;100354.47;;;-4.33;100.00
45525;BME280;31437;58.350;13.828;2023-02-19T06:38:39;100362.16;;;-4.33;100.00
45525;BME280;31437;58.350;13.828;2023-02-19T06:41:05;100357.06;;;-4.30;100.00
45525;BME280;31437;58.350;13.828;2023-02-19T06:43:31;100357.97;;;-4.25;100.00
45525;BME280;31437;58.350;13.828;2023-02-19T06:45:57;100369.09;;;-4.23;100.00
45525;BME280;31437;58.350;13.828;2023-02-19T06:48:23;100355.44;;;-4.23;100.00
45525;BME280;31437;58.350;13.828;2023-02-19T06:50:49;100361.41;;;-4.20;100.00
45525;BME280;31437;58.350;13.828;2023-02-19T06:53:14;100371.69;;;-4.15;100.00
45525;BME280;31437;58.350;13.828;2023-02-19T06:55:39;100364.03;;;-4.12;100.00
45525;BME280;31437;58.350;13.828;2023-02-19T06:58:05;100358.94;;;-4.06;100.00
45525;BME280;31437;58.350;13.828;2023-02-19T07:00:31;100358.25;;;-3.88;100.00
45525;BME280;31437;58.350;13.828;2023-02-19T07:02:57;100361.97;;;-3.40;100.00
45525;BME280;31437;58.350;13.828;2023-02-19T07:05:22;100346.81;;;-2.79;100.00
45525;BME280;31437;58.350;13.828;2023-02-19T07:07:48;100292.94;;;-2.14;100.00
45525;BME280;31437;58.350;13.828;2023-02-19T07:10:13;100235.41;;;-1.66;100.00
45525;BME280;31437;58.350;13.828;2023-02-19T07:12:39;100110.75;;;-1.14;100.00
45525;BME280;31437;58.350;13.828;2023-02-19T07:15:04;99937.84;;;-0.79;100.00
45525;BME280;31437;58.350;13.828;2023-02-19T07:17:29;99584.16;;;-0.34;100.00
45525;BME280;31437;58.350;13.828;2023-02-19T07:19:55;99343.28;;;-0.21;100.00
45525;BME280;31437;58.350;13.828;2023-02-19T07:22:20;99246.06;;;-0.16;100.00
45525;BME280;31437;58.350;13.828;2023-02-19T07:24:45;99212.72;;;0.11;100.00
45525;BME280;31437;58.350;13.828;2023-02-19T07:27:11;99175.91;;;0.35;100.00
45525;BME280;31437;58.350;13.828;2023-02-19T07:29:36;99195.63;;;0.38;100.00
45525;BME280;31437;58.350;13.828;2023-02-19T07:32:01;99179.38;;;0.64;100.00
45525;BME280;31437;58.350;13.828;2023-02-19T07:34:27;99184.19;;;0.76;100.00
45525;BME280;31437;58.350;13.828;2023-02-19T07:36:52;99170.56;;;0.99;100.00
45525;BME280;31437;58.350;13.828;2023-02-19T07:39:17;99163.72;;;0.98;100.00
45525;BME280;31437;58.350;13.828;2023-02-19T07:41:42;99162.22;;;1.18;100.00
45525;BME280;31437;58.350;13.828;2023-02-19T07:44:08;99158.56;;;1.51;100.00
45525;BME280;31437;58.350;13.828;2023-02-19T07:46:33;99151.31;;;1.61;100.00
45525;BME280;31437;58.350;13.828;2023-02-19T07:48:59;99142.59;;;1.65;100.00
45525;BME280;31437;58.350;13.828;2023-02-19T07:51:24;99150.78;;;1.76;100.00
45525;BME280;31437;58.350;13.828;2023-02-19T07:53:50;99147.50;;;1.96;100.00
45525;BME280;31437;58.350;13.828;2023-02-19T07:56:15;99137.72;;;2.30;100.00
45525;BME280;31437;58.350;13.828;2023-02-19T07:58:41;99133.38;;;2.07;100.00
45525;BME280;31437;58.350;13.828;2023-02-19T08:01:13;99143.03;;;2.01;100.00
45525;BME280;31437;58.350;13.828;2023-02-19T08:03:39;99148.09;;;2.04;100.00
45525;BME280;31437;58.350;13.828;2023-02-19T08:06:05;99147.13;;;2.07;100.00
45525;BME280;31437;58.350;13.828;2023-02-19T08:08:30;99149.38;;;1.93;100.00
45525;BME280;31437;58.350;13.828;2023-02-19T08:10:58;99159.88;;;1.88;100.00
45525;BME280;31437;58.350;13.828;2023-02-19T08:13:42;99162.31;;;1.68;100.00
45525;BME280;31437;58.350;13.828;2023-02-19T08:16:11;99156.66;;;1.81;100.00
45525;BME280;31437;58.350;13.828;2023-02-19T08:18:38;99161.81;;;2.07;100.00
45525;BME280;31437;58.350;13.828;2023-02-19T08:21:06;99164.31;;;2.10;100.00
45525;BME280;31437;58.350;13.828;2023-02-19T08:23:31;99173.34;;;1.98;100.00
45525;BME280;31437;58.350;13.828;2023-02-19T08:25:57;99179.38;;;2.22;100.00
45525;BME280;31437;58.350;13.828;2023-02-19T08:28:22;99180.28;;;2.21;100.00
45525;BME280;31437;58.350;13.828;2023-02-19T08:30:48;99184.81;;;2.14;100.00
45525;BME280;31437;58.350;13.828;2023-02-19T08:33:15;99191.00;;;2.10;100.00
45525;BME280;31437;58.350;13.828;2023-02-19T08:35:40;99189.63;;;2.25;100.00
45525;BME280;31437;58.350;13.828;2023-02-19T08:38:07;99188.16;;;2.18;100.00
45525;BME280;31437;58.350;13.828;2023-02-19T08:40:33;99202.66;;;2.22;100.00
45525;BME280;31437;58.350;13.828;2023-02-19T08:43:05;99199.03;;;2.27;100.00
45525;BME280;31437;58.350;13.828;2023-02-19T08:45:31;99207.91;;;1.95;100.00
45525;BME280;31437;58.350;13.828;2023-02-19T08:47:56;99204.59;;;1.92;100.00
45525;BME280;31437;58.350;13.828;2023-02-19T08:50:22;99193.78;;;1.80;100.00
45525;BME280;31437;58.350;13.828;2023-02-19T08:52:47;99214.91;;;1.67;100.00
45525;BME280;31437;58.350;13.828;2023-02-19T08:55:12;99222.97;;;1.57;100.00
45525;BME280;31437;58.350;13.828;2023-02-19T08:57:38;99221.53;;;1.49;100.00
45525;BME280;31437;58.350;13.828;2023-02-19T09:00:04;99230.19;;;1.48;100.00
45525;BME280;31437;58.350;13.828;2023-02-19T09:02:30;99223.78;;;1.59;100.00
45525;BME280;31437;58.350;13.828;2023-02-19T09:04:55;99229.25;;;1.50;100.00
45525;BME280;31437;58.350;13.828;2023-02-19T09:07:20;99230.28;;;1.45;100.00
45525;BME280;31437;58.350;13.828;2023-02-19T09:09:46;99233.50;;;1.25;100.00
45525;BME280;31437;58.350;13.828;2023-02-19T09:12:12;99228.53;;;1.19;100.00
45525;BME280;31437;58.350;13.828;2023-02-19T09:14:37;99239.88;;;1.13;100.00
45525;BME280;31437;58.350;13.828;2023-02-19T09:17:03;99239.09;;;1.11;100.00
45525;BME280;31437;58.350;13.828;2023-02-19T09:19:29;99235.88;;;1.03;100.00
45525;BME280;31437;58.350;13.828;2023-02-19T09:21:54;99238.94;;;0.87;100.00
45525;BME280;31437;58.350;13.828;2023-02-19T09:24:20;99242.31;;;0.89;100.00
45525;BME280;31437;58.350;13.828;2023-02-19T09:26:49;99251.91;;;0.86;100.00
45525;BME280;31437;58.350;13.828;2023-02-19T09:29:14;99248.13;;;0.68;100.00
45525;BME280;31437;58.350;13.828;2023-02-19T09:31:40;99251.09;;;0.54;100.00
45525;BME280;31437;58.350;13.828;2023-02-19T09:34:05;99254.13;;;0.37;100.00
45525;BME280;31437;58.350;13.828;2023-02-19T09:36:32;99256.28;;;0.21;100.00
45525;BME280;31437;58.350;13.828;2023-02-19T09:38:58;99255.31;;;0.26;100.00
45525;BME280;31437;58.350;13.828;2023-02-19T09:41:32;99266.34;;;0.31;100.00
45525;BME280;31437;58.350;13.828;2023-02-19T09:43:59;99273.53;;;0.19;100.00
45525;BME280;31437;58.350;13.828;2023-02-19T09:46:32;99282.03;;;0.23;100.00
45525;BME280;31437;58.350;13.828;2023-02-19T09:49:13;99288.19;;;0.17;100.00
45525;BME280;31437;58.350;13.828;2023-02-19T09:51:40;99294.50;;;0.07;100.00
45525;BME280;31437;58.350;13.828;2023-02-19T09:54:10;99294.41;;;0.10;100.00
45525;BME280;31437;58.350;13.828;2023-02-19T09:56:38;99294.34;;;0.12;100.00
45525;BME280;31437;58.350;13.828;2023-02-19T09:59:04;99299.56;;;0.10;100.00
45525;BME280;31437;58.350;13.828;2023-02-19T10:01:31;99308.16;;;0.11;100.00
45525;BME280;31437;58.350;13.828;2023-02-19T10:03:57;99304.63;;;0.15;100.00
45525;BME280;31437;58.350;13.828;2023-02-19T10:06:23;99310.47;;;0.21;100.00
45525;BME280;31437;58.350;13.828;2023-02-19T10:08:51;99315.47;;;0.28;100.00
45525;BME280;31437;58.350;13.828;2023-02-19T10:11:17;99312.78;;;0.31;100.00
45525;BME280;31437;58.350;13.828;2023-02-19T10:13:44;99305.91;;;0.31;100.00
45525;BME280;31437;58.350;13.828;2023-02-19T10:16:10;99302.28;;;0.38;100.00
45525;BME280;31437;58.350;13.828;2023-02-19T10:18:40;99298.81;;;0.39;100.00
45525;BME280;31437;58.350;13.828;2023-02-19T10:21:07;99303.03;;;0.42;100.00
45525;BME280;31437;58.350;13.828;2023-02-19T10:23:35;99298.66;;;0.44;100.00
45525;BME280;31437;58.350;13.828;2023-02-19T10:26:00;99291.47;;;0.57;100.00
45525;BME280;31437;58.350;13.828;2023-02-19T10:28:30;99296.53;;;0.60;100.00
45525;BME280;31437;58.350;13.828;2023-02-19T10:30:59;99299.66;;;0.71;100.00
45525;BME280;31437;58.350;13.828;2023-02-19T10:33:25;99300.41;;;0.75;100.00
45525;BME280;31437;58.350;13.828;2023-02-19T10:38:19;99303.97;;;0.71;100.00
45525;BME280;31437;58.350;13.828;2023-02-19T10:40:47;99311.56;;;0.77;100.00
45525;BME280;31437;58.350;13.828;2023-02-19T10:43:49;99312.44;;;0.76;100.00
45525;BME280;31437;58.350;13.828;2023-02-19T10:46:16;99309.63;;;0.83;100.00
45525;BME280;31437;58.350;13.828;2023-02-19T10:48:48;99326.06;;;0.81;100.00
45525;BME280;31437;58.350;13.828;2023-02-19T10:51:15;99322.75;;;0.76;100.00
45525;BME280;31437;58.350;13.828;2023-02-19T10:56:14;99323.69;;;0.73;100.00
45525;BME280;31437;58.350;13.828;2023-02-19T10:58:41;99323.00;;;0.68;100.00
45525;BME280;31437;58.350;13.828;2023-02-19T11:01:13;99325.59;;;0.66;100.00
45525;BME280;31437;58.350;13.828;2023-02-19T11:03:38;99321.34;;;0.65;100.00
45525;BME280;31437;58.350;13.828;2023-02-19T11:06:05;99326.53;;;0.64;100.00
45525;BME280;31437;58.350;13.828;2023-02-19T11:11:03;99323.66;;;0.75;100.00
45525;BME280;31437;58.350;13.828;2023-02-19T11:13:29;99333.91;;;0.76;100.00
45525;BME280;31437;58.350;13.828;2023-02-19T11:15:56;99320.09;;;0.79;100.00
45525;BME280;31437;58.350;13.828;2023-02-19T11:18:29;99326.06;;;0.81;100.00
45525;BME280;31437;58.350;13.828;2023-02-19T11:20:59;99322.72;;;0.77;100.00
45525;BME280;31437;58.350;13.828;2023-02-19T11:23:29;99324.28;;;0.83;100.00
45525;BME280;31437;58.350;13.828;2023-02-19T11:25:56;99324.31;;;0.81;100.00
45525;BME280;31437;58.350;13.828;2023-02-19T11:30:48;99335.41;;;0.85;100.00
45525;BME280;31437;58.350;13.828;2023-02-19T11:35:43;99312.16;;;0.85;100.00
45525;BME280;31437;58.350;13.828;2023-02-19T11:38:09;99320.91;;;0.81;100.00
45525;BME280;31437;58.350;13.828;2023-02-19T11:43:23;99320.84;;;0.82;100.00
45525;BME280;31437;58.350;13.828;2023-02-19T11:46:00;99311.41;;;0.81;100.00
45525;BME280;31437;58.350;13.828;2023-02-19T11:48:39;99297.66;;;0.81;100.00
45525;BME280;31437;58.350;13.828;2023-02-19T11:51:30;99307.09;;;0.82;100.00
45525;BME280;31437;58.350;13.828;2023-02-19T11:56:36;99295.00;;;0.82;100.00
45525;BME280;31437;58.350;13.828;2023-02-19T11:59:03;99295.88;;;0.83;100.00
45525;BME280;31437;58.350;13.828;2023-02-19T12:01:35;99277.94;;;0.78;100.00
45525;BME280;31437;58.350;13.828;2023-02-19T12:15:06;99283.75;;;0.55;100.00
45525;BME280;31437;58.350;13.828;2023-02-19T12:17:41;99278.56;;;0.55;100.00
45525;BME280;31437;58.350;13.828;2023-02-19T12:20:17;99270.06;;;0.53;100.00
45525;BME280;31437;58.350;13.828;2023-02-19T12:26:02;99268.00;;;0.64;100.00
45525;BME280;31437;58.350;13.828;2023-02-19T12:36:40;99258.28;;;1.02;100.00
45525;BME280;31437;58.350;13.828;2023-02-19T12:44:25;99253.53;;;1.18;100.00
45525;BME280;31437;58.350;13.828;2023-02-19T12:46:59;99255.06;;;1.24;100.00
45525;BME280;31437;58.350;13.828;2023-02-19T12:49:35;99246.31;;;1.28;100.00
45525;BME280;31437;58.350;13.828;2023-02-19T12:52:09;99240.25;;;1.29;100.00
45525;BME280;31437;58.350;13.828;2023-02-19T12:54:37;99251.44;;;1.29;100.00
45525;BME280;31437;58.350;13.828;2023-02-19T13:07:13;99248.34;;;1.18;100.00
45525;BME280;31437;58.350;13.828;2023-02-19T13:09:46;99248.38;;;1.17;100.00
45525;BME280;31437;58.350;13.828;2023-02-19T13:12:14;99252.72;;;1.16;100.00
45525;BME280;31437;58.350;13.828;2023-02-19T13:14:46;99252.81;;;1.13;100.00
45525;BME280;31437;58.350;13.828;2023-02-19T13:19:41;99265.75;;;1.11;100.00
45525;BME280;31437;58.350;13.828;2023-02-19T13:25:09;99253.00;;;1.07;100.00
45525;BME280;31437;58.350;13.828;2023-02-19T13:27:54;99254.69;;;1.08;100.00
45525;BME280;31437;58.350;13.828;2023-02-19T13:38:11;99274.06;;;0.93;100.00
45525;BME280;31437;58.350;13.828;2023-02-19T13:40:40;99279.41;;;0.87;100.00
45525;BME280;31437;58.350;13.828;2023-02-19T13:46:12;99273.78;;;0.73;100.00
45525;BME280;31437;58.350;13.828;2023-02-19T13:48:40;99275.72;;;0.64;100.00
45525;BME280;31437;58.350;13.828;2023-02-19T14:04:40;99272.84;;;0.44;100.00
45525;BME280;31437;58.350;13.828;2023-02-19T14:14:37;99239.56;;;0.35;100.00
45525;BME280;31437;58.350;13.828;2023-02-19T14:17:04;99233.81;;;0.25;100.00
45525;BME280;31437;58.350;13.828;2023-02-19T14:19:55;99242.78;;;0.12;100.00
45525;BME280;31437;58.350;13.828;2023-02-19T14:25:06;99250.06;;;-0.04;100.00
45525;BME280;31437;58.350;13.828;2023-02-19T14:27:33;99246.00;;;-0.13;100.00
45525;BME280;31437;58.350;13.828;2023-02-19T14:29:58;99244.41;;;-0.17;100.00
45525;BME280;31437;58.350;13.828;2023-02-19T14:32:24;99259.13;;;-0.22;100.00
45525;BME280;31437;58.350;13.828;2023-02-19T14:34:49;99259.22;;;-0.27;100.00
45525;BME280;31437;58.350;13.828;2023-02-19T14:37:16;99263.66;;;-0.32;100.00
45525;BME280;31437;58.350;13.828;2023-02-19T14:39:43;99256.88;;;-0.36;100.00
45525;BME280;31437;58.350;13.828;2023-02-19T14:42:15;99268.16;;;-0.40;100.00
45525;BME280;31437;58.350;13.828;2023-02-19T14:47:16;99275.16;;;-0.45;100.00
45525;BME280;31437;58.350;13.828;2023-02-19T14:49:44;99270.00;;;-0.45;100.00
45525;BME280;31437;58.350;13.828;2023-02-19T14:54:49;99270.03;;;-0.47;100.00